createdAt,value
2018-03-22T00:01:59.256Z,12.03
2018-03-22T00:04:26.804Z,7.67
2018-03-22T00:06:54.367Z,9.70
2018-03-22T00:09:21.909Z,11.27
2018-03-22T00:11:49.467Z,14.67
2018-03-22T00:14:17.000Z,8.03
2018-03-22T00:16:45.322Z,10.33
2018-03-22T00:19:12.866Z,10.50
2018-03-22T00:21:40.399Z,11.77
2018-03-22T00:24:08.732Z,8.63
2018-03-22T00:26:36.263Z,10.20
2018-03-22T00:29:03.836Z,10.30
2018-03-22T00:31:31.388Z,11.87
2018-03-22T00:33:58.987Z,7.27
2018-03-22T00:36:26.620Z,12.00
2018-03-22T00:38:54.177Z,11.00
2018-03-22T00:41:21.749Z,10.87
2018-03-22T00:43:49.278Z,12.00
2018-03-22T00:46:16.834Z,10.87
2018-03-22T00:48:45.314Z,14.27
2018-03-22T00:51:12.852Z,7.30
2018-03-22T00:53:40.410Z,14.80
2018-03-22T00:56:07.940Z,10.43
2018-03-22T00:58:35.524Z,7.30
2018-03-22T01:01:03.851Z,10.13
2018-03-22T01:03:31.403Z,8.33
2018-03-22T01:05:58.959Z,9.90
2018-03-22T01:08:26.486Z,10.13
2018-03-22T01:10:54.086Z,9.13
2018-03-22T01:13:21.626Z,14.63
2018-03-22T01:15:49.795Z,11.13
2018-03-22T01:18:17.350Z,13.70
2018-03-22T01:20:44.911Z,9.23
2018-03-22T01:23:13.443Z,9.40
2018-03-22T01:25:41.032Z,6.73
2018-03-22T01:28:09.335Z,9.60
2018-03-22T01:30:36.906Z,7.50
2018-03-22T01:33:04.484Z,7.93
2018-03-22T01:35:33.044Z,6.60
2018-03-22T01:38:00.566Z,7.63
2018-03-22T01:40:28.109Z,10.60
2018-03-22T01:42:55.662Z,6.67
2018-03-22T01:45:23.224Z,8.20
2018-03-22T01:47:50.771Z,11.03
2018-03-22T01:50:19.259Z,6.40
2018-03-22T01:52:58.747Z,6.27
2018-03-22T01:55:27.231Z,10.30
2018-03-22T01:57:55.702Z,8.07
2018-03-22T02:00:23.456Z,14.53
2018-03-22T02:02:50.999Z,9.57
2018-03-22T02:05:18.700Z,6.90
2018-03-22T02:07:46.229Z,8.50
2018-03-22T02:10:15.501Z,18.20
2018-03-22T02:12:43.147Z,13.23
2018-03-22T02:15:10.876Z,10.97
2018-03-22T02:17:38.632Z,7.77
2018-03-22T02:20:06.321Z,6.73
2018-03-22T02:22:34.187Z,7.70
2018-03-22T02:25:02.006Z,9.60
2018-03-22T02:27:30.343Z,9.10
2018-03-22T02:29:57.916Z,6.50
2018-03-22T02:32:25.643Z,9.63
2018-03-22T02:34:53.289Z,9.10
2018-03-22T02:37:23.006Z,9.47
2018-03-22T02:39:50.575Z,9.47
2018-03-22T02:42:18.149Z,8.60
2018-03-22T02:44:45.717Z,8.13
2018-03-22T02:47:13.451Z,12.20
2018-03-22T02:49:41.022Z,6.40
2018-03-22T02:52:08.571Z,8.83
2018-03-22T02:54:38.292Z,7.33
2018-03-22T02:57:05.825Z,9.70
2018-03-22T02:59:33.358Z,7.07
2018-03-22T03:02:01.874Z,8.33
2018-03-22T03:04:29.427Z,10.80
2018-03-22T03:06:59.138Z,6.70
2018-03-22T03:09:26.817Z,7.40
2018-03-22T03:11:54.352Z,8.20
2018-03-22T03:14:22.205Z,7.83
2018-03-22T03:16:49.995Z,7.13
2018-03-22T03:19:17.609Z,7.63
2018-03-22T03:21:45.159Z,9.97
2018-03-22T03:24:12.689Z,6.47
2018-03-22T03:26:40.275Z,8.37
2018-03-22T03:29:07.806Z,11.90
2018-03-22T03:31:35.383Z,7.53
2018-03-22T03:34:02.914Z,16.00
2018-03-22T03:36:31.399Z,8.87
2018-03-22T03:38:58.947Z,8.10
2018-03-22T03:41:27.427Z,14.13
2018-03-22T03:43:55.027Z,7.20
2018-03-22T03:46:22.620Z,8.03
2018-03-22T03:48:51.036Z,6.90
2018-03-22T03:51:18.578Z,9.47
2018-03-22T03:53:46.152Z,7.40
2018-03-22T03:56:14.019Z,8.33
2018-03-22T03:58:41.566Z,8.30
2018-03-22T04:01:09.107Z,11.20
2018-03-22T04:03:37.438Z,8.17
2018-03-22T04:06:05.971Z,13.23
2018-03-22T04:08:33.755Z,18.43
2018-03-22T04:11:02.279Z,9.13
2018-03-22T04:13:29.817Z,26.20
2018-03-22T04:15:59.303Z,33.00
2018-03-22T04:18:26.838Z,26.57
2018-03-22T04:20:54.431Z,20.50
2018-03-22T04:23:21.963Z,22.53
2018-03-22T04:25:49.514Z,11.00
2018-03-22T04:28:17.670Z,34.80
2018-03-22T04:30:46.336Z,11.10
2018-03-22T04:33:13.898Z,11.70
2018-03-22T04:35:42.246Z,12.90
2018-03-22T04:38:09.739Z,13.53
2018-03-22T04:40:38.054Z,10.73
2018-03-22T04:43:05.591Z,9.53
2018-03-22T04:45:33.147Z,8.23
2018-03-22T04:48:01.637Z,10.27
2018-03-22T04:50:29.182Z,13.23
2018-03-22T04:52:56.760Z,10.10
2018-03-22T04:55:25.272Z,14.27
2018-03-22T04:57:52.836Z,26.80
2018-03-22T05:00:20.889Z,18.63
2018-03-22T05:02:48.424Z,13.10
2018-03-22T05:05:16.218Z,9.57
2018-03-22T05:07:43.758Z,8.43
2018-03-22T05:10:11.325Z,15.13
2018-03-22T05:12:39.808Z,11.37
2018-03-22T05:15:07.338Z,11.13
2018-03-22T05:17:35.665Z,8.23
2018-03-22T05:20:03.201Z,12.10
2018-03-22T05:22:30.765Z,10.07
2018-03-22T05:24:58.335Z,9.57
2018-03-22T05:27:25.840Z,6.50
2018-03-22T05:29:53.453Z,15.73
2018-03-22T05:32:21.074Z,8.47
2018-03-22T05:42:42.148Z,13.40
2018-03-22T05:45:09.717Z,8.60
2018-03-22T05:47:37.251Z,7.87
2018-03-22T05:50:05.711Z,12.48
2018-03-22T05:52:33.269Z,9.40
2018-03-22T05:55:01.576Z,32.80
2018-03-22T05:57:29.110Z,28.23
2018-03-22T05:59:59.371Z,28.73
2018-03-22T06:02:26.920Z,23.20
2018-03-22T06:04:55.470Z,20.03
2018-03-22T06:07:23.076Z,18.10
2018-03-22T06:09:50.608Z,25.37
2018-03-22T06:12:18.182Z,20.43
2018-03-22T06:14:46.684Z,18.40
2018-03-22T06:17:14.250Z,14.60
2018-03-22T06:19:41.793Z,22.33
2018-03-22T06:22:09.351Z,15.60
2018-03-22T06:24:36.918Z,20.37
2018-03-22T06:27:04.482Z,20.60
2018-03-22T06:29:32.092Z,24.90
2018-03-22T06:32:00.406Z,13.83
2018-03-22T06:34:27.953Z,11.83
2018-03-22T06:36:55.530Z,11.23
2018-03-22T06:39:23.069Z,14.30
2018-03-22T06:41:50.683Z,23.80
2018-03-22T06:44:18.231Z,11.30
2018-03-22T06:46:45.826Z,12.40
2018-03-22T06:49:13.412Z,11.17
2018-03-22T06:51:41.173Z,11.20
2018-03-22T06:54:08.837Z,13.10
2018-03-22T06:56:36.370Z,16.63
2018-03-22T06:59:04.680Z,18.87
2018-03-22T07:01:34.811Z,12.63
2018-03-22T07:04:02.349Z,14.83
2018-03-22T07:06:29.922Z,13.43
2018-03-22T07:08:57.790Z,16.90
2018-03-22T07:11:25.338Z,8.00
2018-03-22T07:13:52.973Z,35.57
2018-03-22T07:16:21.306Z,20.17
2018-03-22T07:18:48.894Z,8.03
2018-03-22T07:21:16.420Z,11.07
2018-03-22T07:23:44.904Z,11.00
2018-03-22T07:26:12.463Z,11.80
2018-03-22T07:28:40.005Z,14.47
2018-03-22T07:31:07.615Z,11.63
2018-03-22T07:33:35.919Z,19.70
2018-03-22T07:36:03.481Z,14.83
2018-03-22T07:38:31.139Z,12.03
2018-03-22T07:40:58.659Z,9.83
2018-03-22T07:43:33.684Z,10.80
2018-03-22T07:46:02.040Z,8.70
2018-03-22T07:48:31.126Z,12.60
2018-03-22T07:50:59.299Z,13.50
2018-03-22T07:53:28.007Z,12.17
2018-03-22T07:55:55.844Z,11.30
2018-03-22T07:58:24.409Z,12.67
2018-03-22T08:00:52.385Z,33.57
2018-03-22T08:03:21.831Z,16.43
2018-03-22T08:05:50.305Z,12.40
2018-03-22T08:08:18.750Z,19.67
2018-03-22T08:10:47.668Z,17.93
2018-03-22T08:13:16.216Z,17.03
2018-03-22T08:15:44.826Z,14.07
2018-03-22T08:18:16.824Z,16.23
2018-03-22T08:20:45.467Z,20.40
2018-03-22T08:23:14.463Z,15.53
2018-03-22T08:25:43.018Z,19.83
2018-03-22T08:28:12.334Z,21.07
2018-03-22T08:30:40.657Z,20.37
2018-03-22T08:33:08.788Z,15.27
2018-03-22T08:35:37.161Z,13.00
2018-03-22T08:38:06.260Z,14.80
2018-03-22T08:40:35.157Z,16.27
2018-03-22T08:43:04.534Z,11.57
2018-03-22T08:45:34.732Z,13.97
2018-03-22T08:48:04.649Z,17.63
2018-03-22T08:50:32.472Z,11.40
2018-03-22T08:53:02.691Z,21.37
2018-03-22T08:55:30.358Z,9.77
2018-03-22T08:57:57.985Z,13.73
2018-03-22T09:00:25.830Z,12.07
2018-03-22T09:02:54.180Z,9.30
2018-03-22T09:05:22.697Z,16.73
2018-03-22T09:07:51.002Z,9.30
2018-03-22T09:10:19.868Z,7.70
2018-03-22T09:12:48.446Z,12.80
2018-03-22T09:15:17.127Z,9.60
2018-03-22T09:17:46.152Z,9.30
2018-03-22T09:20:14.060Z,13.90
2018-03-22T09:22:42.074Z,11.80
2018-03-22T09:25:09.855Z,14.90
2018-03-22T09:27:37.813Z,16.27
2018-03-22T09:30:07.154Z,19.70
2018-03-22T09:32:34.959Z,10.50
2018-03-22T09:35:02.814Z,11.70
2018-03-22T09:37:30.556Z,11.87
2018-03-22T09:40:00.400Z,15.97
2018-03-22T09:42:29.211Z,8.67
2018-03-22T09:44:57.614Z,14.03
2018-03-22T09:47:25.566Z,10.93
2018-03-22T09:49:53.275Z,12.13
2018-03-22T09:52:21.341Z,14.03
2018-03-22T09:54:50.292Z,12.53
2018-03-22T09:57:18.047Z,10.40
2018-03-22T09:59:47.985Z,13.70
2018-03-22T10:02:15.795Z,13.03
2018-03-22T10:04:44.019Z,12.83
2018-03-22T10:07:11.588Z,12.20
2018-03-22T10:09:39.204Z,12.67
2018-03-22T10:12:07.940Z,17.97
2018-03-22T10:14:36.116Z,14.60
2018-03-22T10:17:03.708Z,11.80
2018-03-22T10:19:31.712Z,14.40
2018-03-22T10:22:00.562Z,12.20
2018-03-22T10:24:29.181Z,11.67
2018-03-22T10:26:56.741Z,10.63
2018-03-22T10:29:26.371Z,9.73
2018-03-22T10:31:54.408Z,9.63
2018-03-22T10:34:22.890Z,7.57
2018-03-22T10:36:50.534Z,14.07
2018-03-22T10:39:19.362Z,12.90
2018-03-22T10:41:48.461Z,12.93
2018-03-22T10:44:17.120Z,13.10
2018-03-22T10:46:45.620Z,10.70
2018-03-22T10:49:14.019Z,9.40
2018-03-22T10:51:42.729Z,12.33
2018-03-22T10:54:10.693Z,14.73
2018-03-22T10:56:38.726Z,8.97
2018-03-22T10:59:06.722Z,10.10
2018-03-22T11:01:40.195Z,12.33
2018-03-22T11:04:08.022Z,11.83
2018-03-22T11:06:36.851Z,9.07
2018-03-22T11:09:05.684Z,9.10
2018-03-22T11:11:34.172Z,21.87
2018-03-22T11:14:02.118Z,28.53
2018-03-22T11:16:30.462Z,21.27
2018-03-22T11:18:58.782Z,10.50
2018-03-22T11:21:27.196Z,12.37
2018-03-22T11:23:54.894Z,15.07
2018-03-22T11:26:22.604Z,8.47
2018-03-22T11:28:50.588Z,9.63
2018-03-22T11:31:19.400Z,14.43
2018-03-22T11:33:47.370Z,14.47
2018-03-22T11:36:15.798Z,8.63
2018-03-22T11:38:43.686Z,12.60
2018-03-22T11:41:12.164Z,10.50
2018-03-22T11:43:41.792Z,11.20
2018-03-22T11:46:10.595Z,10.97
2018-03-22T11:48:38.875Z,10.37
2018-03-22T11:51:06.627Z,14.37
2018-03-22T11:53:34.382Z,15.10
2018-03-22T11:56:02.166Z,15.17
2018-03-22T11:58:31.154Z,11.33
2018-03-22T12:00:59.048Z,17.67
2018-03-22T12:03:27.174Z,14.23
2018-03-22T12:05:56.173Z,11.63
2018-03-22T12:08:24.077Z,15.83
2018-03-22T12:10:52.333Z,20.13
2018-03-22T12:13:20.377Z,16.60
2018-03-22T12:15:48.154Z,18.23
2018-03-22T12:18:15.972Z,19.43
2018-03-22T12:20:43.811Z,19.03
2018-03-22T12:23:11.563Z,13.10
2018-03-22T12:25:39.853Z,17.23
2018-03-22T12:28:08.761Z,16.47
2018-03-22T12:30:37.257Z,19.93
2018-03-22T12:33:04.855Z,22.23
2018-03-22T12:35:32.416Z,15.30
2018-03-22T12:38:00.858Z,15.10
2018-03-22T12:40:29.196Z,13.90
2018-03-22T12:42:57.052Z,12.83
2018-03-22T12:45:26.631Z,13.97
2018-03-22T12:47:54.279Z,13.40
2018-03-22T12:50:22.603Z,15.00
2018-03-22T12:52:50.767Z,14.57
2018-03-22T12:55:18.453Z,26.60
2018-03-22T12:57:47.011Z,12.20
2018-03-22T13:00:14.983Z,12.47
2018-03-22T13:02:43.216Z,22.50
2018-03-22T13:05:11.877Z,16.67
2018-03-22T13:07:41.060Z,12.23
2018-03-22T13:10:08.802Z,15.57
2018-03-22T13:12:36.331Z,19.27
2018-03-22T13:15:03.850Z,20.37
2018-03-22T13:17:31.402Z,18.37
2018-03-22T13:19:58.991Z,12.50
2018-03-22T13:22:27.321Z,16.17
2018-03-22T13:24:54.882Z,16.87
2018-03-22T13:27:23.055Z,19.77
2018-03-22T13:29:51.881Z,16.33
2018-03-22T13:32:20.375Z,10.87
2018-03-22T13:34:48.689Z,15.87
2018-03-22T13:37:17.864Z,13.77
2018-03-22T13:39:45.536Z,15.47
2018-03-22T13:42:13.380Z,12.83
2018-03-22T13:44:41.782Z,19.70
2018-03-22T13:47:11.785Z,13.60
2018-03-22T13:49:40.076Z,13.00
2018-03-22T13:52:07.616Z,19.10
2018-03-22T13:54:35.658Z,15.77
2018-03-22T13:57:03.352Z,19.00
2018-03-22T13:59:30.910Z,14.20
2018-03-22T14:01:58.466Z,16.23
2018-03-22T14:04:27.185Z,18.10
2018-03-22T14:06:54.890Z,16.10
2018-03-22T14:09:22.411Z,16.30
2018-03-22T14:11:49.987Z,19.73
2018-03-22T14:14:17.501Z,13.80
2018-03-22T14:16:45.045Z,13.37
2018-03-22T14:19:13.374Z,19.10
2018-03-22T14:21:41.242Z,16.37
2018-03-22T14:24:10.795Z,21.87
2018-03-22T14:26:38.338Z,11.30
2018-03-22T14:29:05.884Z,24.93
2018-03-22T14:31:33.462Z,16.00
2018-03-22T14:34:01.802Z,18.87
2018-03-22T14:36:29.366Z,17.60
2018-03-22T14:38:56.951Z,16.43
2018-03-22T14:41:24.495Z,17.50
2018-03-22T14:43:52.228Z,18.47
2018-03-22T14:46:19.777Z,12.00
2018-03-22T14:48:47.364Z,25.47
2018-03-22T14:51:14.939Z,20.83
2018-03-22T14:53:42.465Z,12.67
2018-03-22T14:56:10.023Z,21.17
2018-03-22T14:58:37.544Z,18.57
2018-03-22T15:01:05.131Z,18.50
2018-03-22T15:03:32.796Z,18.23
2018-03-22T15:06:01.200Z,19.60
2018-03-22T15:08:28.786Z,21.97
2018-03-22T15:10:58.191Z,29.30
2018-03-22T15:13:27.742Z,17.90
2018-03-22T15:15:55.274Z,24.23
2018-03-22T15:18:23.570Z,14.90
2018-03-22T15:20:51.133Z,24.83
2018-03-22T15:23:18.679Z,33.97
2018-03-22T15:25:46.231Z,15.17
2018-03-22T15:28:13.762Z,16.83
2018-03-22T15:30:42.083Z,18.17
2018-03-22T15:33:09.826Z,25.30
2018-03-22T15:35:38.133Z,16.37
2018-03-22T15:38:05.687Z,19.00
2018-03-22T15:40:34.177Z,21.63
2018-03-22T15:43:01.703Z,15.80
2018-03-22T15:45:29.275Z,18.20
2018-03-22T15:47:56.806Z,18.27
2018-03-22T15:50:24.357Z,18.07
2018-03-22T15:52:51.905Z,17.27
2018-03-22T15:55:19.437Z,17.03
2018-03-22T15:57:47.007Z,27.53
2018-03-22T16:00:14.535Z,17.80
2018-03-22T16:02:42.102Z,17.87
2018-03-22T16:05:09.618Z,14.70
2018-03-22T16:07:38.123Z,14.60
2018-03-22T16:10:06.058Z,16.40
2018-03-22T16:12:33.606Z,29.37
2018-03-22T16:15:01.178Z,26.17
2018-03-22T16:17:29.528Z,37.73
2018-03-22T16:19:57.090Z,18.80
2018-03-22T16:22:25.604Z,23.47
2018-03-22T16:24:53.397Z,20.50
2018-03-22T16:27:21.520Z,17.37
2018-03-22T16:29:49.966Z,18.13
2018-03-22T16:32:18.252Z,24.80
2018-03-22T16:34:45.826Z,21.27
2018-03-22T16:37:13.425Z,22.03
2018-03-22T16:39:41.797Z,24.03
2018-03-22T16:42:10.184Z,27.20
2018-03-22T16:44:37.730Z,24.87
2018-03-22T16:47:05.318Z,21.20
2018-03-22T16:49:32.851Z,21.60
2018-03-22T16:52:00.474Z,24.43
2018-03-22T16:54:28.657Z,27.07
2018-03-22T16:56:56.365Z,21.87
2018-03-22T16:59:24.235Z,21.27
2018-03-22T17:01:52.736Z,25.30
2018-03-22T17:04:20.318Z,20.87
2018-03-22T17:06:47.981Z,22.33
2018-03-22T17:09:16.129Z,20.23
2018-03-22T17:11:44.088Z,23.63
2018-03-22T17:14:12.358Z,33.83
2018-03-22T17:16:41.314Z,44.83
2018-03-22T17:19:10.097Z,23.97
2018-03-22T17:21:38.428Z,28.43
2018-03-22T17:24:07.180Z,31.40
2018-03-22T17:26:36.351Z,38.83
2018-03-22T17:29:04.643Z,45.53
2018-03-22T17:31:33.197Z,25.50
2018-03-22T17:34:01.978Z,24.40
2018-03-22T17:36:30.597Z,25.43
2018-03-22T17:38:58.599Z,25.07
2018-03-22T17:41:26.997Z,20.87
2018-03-22T17:43:55.412Z,28.90
2018-03-22T17:46:25.195Z,24.67
2018-03-22T17:48:54.502Z,26.77
2018-03-22T17:51:24.167Z,26.67
2018-03-22T17:53:52.555Z,23.30
2018-03-22T17:56:20.945Z,22.27
2018-03-22T17:58:49.584Z,26.40
2018-03-22T18:01:18.663Z,26.83
2018-03-22T18:03:46.878Z,25.40
2018-03-22T18:06:16.223Z,30.27
2018-03-22T18:08:44.815Z,28.60
2018-03-22T18:11:13.048Z,26.00
2018-03-22T18:13:41.430Z,26.33
2018-03-22T18:16:10.004Z,24.60
2018-03-22T18:18:38.595Z,39.20
2018-03-22T18:21:08.081Z,38.33
2018-03-22T18:23:36.793Z,36.07
2018-03-22T18:26:05.202Z,32.43
2018-03-22T18:28:33.232Z,30.67
2018-03-22T18:31:01.424Z,29.73
2018-03-22T18:33:29.602Z,27.10
2018-03-22T18:35:57.869Z,33.57
2018-03-22T18:38:26.013Z,37.20
2018-03-22T18:40:54.133Z,30.27
2018-03-22T18:43:23.106Z,22.50
2018-03-22T18:45:51.589Z,30.63
2018-03-22T18:48:20.233Z,26.40
2018-03-22T18:50:48.610Z,49.83
2018-03-22T18:53:18.058Z,27.00
2018-03-22T18:55:47.143Z,27.70
2018-03-22T18:58:15.868Z,24.77
2018-03-22T19:00:46.583Z,29.23
2018-03-22T19:03:16.360Z,31.43
2018-03-22T19:05:44.535Z,30.97
2018-03-22T19:08:12.513Z,30.57
2018-03-22T19:10:40.568Z,27.60
2018-03-22T19:13:09.005Z,22.70
2018-03-22T19:15:39.571Z,24.03
2018-03-22T19:18:08.242Z,24.23
2018-03-22T19:20:37.127Z,25.93
2018-03-22T19:23:06.495Z,26.70
2018-03-22T19:25:35.900Z,29.20
2018-03-22T19:28:04.289Z,28.63
2018-03-22T19:30:32.759Z,28.90
2018-03-22T19:33:01.478Z,26.60
2018-03-22T19:35:30.847Z,27.70
2018-03-22T19:37:58.983Z,26.73
2018-03-22T19:40:27.168Z,26.20
2018-03-22T19:42:57.337Z,58.37
2018-03-22T19:45:27.096Z,23.27
2018-03-22T19:47:55.019Z,24.53
2018-03-22T19:50:23.148Z,24.07
2018-03-22T19:52:51.708Z,23.97
2018-03-22T19:55:20.237Z,24.70
2018-03-22T19:57:48.678Z,24.83
2018-03-22T20:00:17.658Z,29.67
2018-03-22T20:02:46.015Z,35.90
2018-03-22T20:05:15.482Z,32.83
2018-03-22T20:07:44.184Z,36.90
2018-03-22T20:10:12.561Z,29.80
2018-03-22T20:12:42.128Z,25.37
2018-03-22T20:15:10.400Z,28.27
2018-03-22T20:17:39.363Z,28.77
2018-03-22T20:20:07.107Z,24.75
2018-03-22T20:22:35.637Z,28.03
2018-03-22T20:25:05.043Z,25.17
2018-03-22T20:27:33.427Z,30.87
2018-03-22T20:30:02.064Z,25.60
2018-03-22T20:32:30.465Z,26.93
2018-03-22T20:34:59.685Z,28.93
2018-03-22T20:37:28.257Z,27.57
2018-03-22T20:39:56.653Z,24.73
2018-03-22T20:42:24.786Z,29.33
2018-03-22T20:44:54.209Z,26.77
2018-03-22T20:47:22.360Z,30.90
2018-03-22T20:49:52.819Z,31.80
2018-03-22T20:52:21.775Z,32.37
2018-03-22T20:54:53.272Z,33.60
2018-03-22T20:57:20.840Z,33.10
2018-03-22T20:59:48.794Z,28.17
2018-03-22T21:02:16.323Z,27.40
2018-03-22T21:04:44.934Z,34.07
2018-03-22T21:07:12.708Z,32.67
2018-03-22T21:09:40.364Z,28.97
2018-03-22T21:12:10.284Z,33.57
2018-03-22T21:14:38.397Z,36.90
2018-03-22T21:17:06.630Z,37.20
2018-03-22T21:19:34.830Z,25.60
2018-03-22T21:22:02.964Z,24.80
2018-03-22T21:24:30.919Z,24.97
2018-03-22T21:26:59.335Z,25.57
2018-03-22T21:29:27.829Z,24.33
2018-03-22T21:31:57.107Z,23.07
2018-03-22T21:34:26.452Z,23.50
2018-03-22T21:36:54.297Z,25.77
2018-03-22T21:39:22.641Z,20.47
2018-03-22T21:42:03.684Z,20.57
2018-03-22T21:44:32.942Z,23.23
2018-03-22T21:47:13.124Z,21.73
2018-03-22T21:49:41.907Z,24.07
2018-03-22T21:52:21.256Z,26.33
2018-03-22T21:54:49.475Z,23.37
2018-03-22T21:57:17.944Z,32.10
2018-03-22T21:59:46.293Z,27.93
2018-03-22T22:02:15.326Z,27.90
2018-03-22T22:04:44.051Z,27.57
2018-03-22T22:07:12.784Z,27.23
2018-03-22T22:09:42.263Z,29.00
2018-03-22T22:12:11.100Z,30.53
2018-03-22T22:14:39.841Z,29.37
2018-03-22T22:17:10.317Z,27.03
2018-03-22T22:19:38.803Z,33.07
2018-03-22T22:22:09.054Z,26.13
2018-03-22T22:24:38.506Z,25.30
2018-03-22T22:27:07.482Z,24.00
2018-03-22T22:29:35.575Z,20.90
2018-03-22T22:32:03.712Z,22.03
2018-03-22T22:34:32.233Z,19.93
2018-03-22T22:37:00.031Z,20.87
2018-03-22T22:39:29.159Z,22.60
2018-03-22T22:41:58.576Z,20.63
2018-03-22T22:44:28.671Z,19.33
2018-03-22T22:46:57.815Z,20.80
2018-03-22T22:49:25.960Z,19.13
2018-03-22T22:51:55.507Z,18.87
2018-03-22T22:54:24.342Z,20.23
2018-03-22T22:56:53.889Z,18.97
2018-03-22T22:59:24.068Z,21.90
2018-03-22T23:01:52.045Z,20.90
2018-03-22T23:04:20.333Z,22.67
2018-03-22T23:06:48.790Z,18.07
2018-03-22T23:09:17.483Z,19.83
2018-03-22T23:11:45.648Z,18.57
2018-03-22T23:14:14.088Z,18.73
2018-03-22T23:16:42.929Z,18.53
2018-03-22T23:19:11.220Z,20.83
2018-03-22T23:21:39.306Z,20.67
2018-03-22T23:24:07.358Z,21.00
2018-03-22T23:26:35.495Z,19.77
2018-03-22T23:29:04.720Z,19.10
2018-03-22T23:31:33.946Z,24.37
2018-03-22T23:34:01.729Z,20.07
2018-03-22T23:36:30.835Z,19.50
2018-03-22T23:38:58.947Z,20.43
2018-03-22T23:41:27.680Z,21.43
2018-03-22T23:43:55.742Z,20.80
2018-03-22T23:46:23.617Z,20.00
2018-03-22T23:48:51.387Z,18.53
2018-03-22T23:51:19.733Z,18.63
2018-03-22T23:53:47.615Z,18.97
2018-03-22T23:56:15.757Z,23.33
2018-03-22T23:58:43.694Z,17.10
